ヤクーツク の空港の天気 - METARとTAF

ヤクーツク空港 ( UEEE / YKS ) - ロシア ヤクーツク
飛行場実況気象(Metar)
観測時間12/01 01:30 YAKT (11/30 16:30 UTC)
風向・風速静穏 0m/s
視程10km以上
天気現象弱い雪
なし
気温-37℃
湿度66%
気圧1007hPa
METARUEEE 301630Z 00000MPS 9999 -SN NSC M37/M41 Q1007 R23L/490155 NOSIG RMK QFE747
過去の天気等 Google飛行場航空写真 Wunderground天気予報

過去48時間のMETAR

飛行場予報(TAF)
発表時間: 11/30 23:00 YAKT (11/30 14:00 UTC)
予報対象時間: 1日0時 YAKT ~ 2日6時 YAKT
風向・風速西北西 3m/s 瞬間風速 8m/s
視程5000m
天気現象弱い雪
全天の4割程度の雲 雲底高度 610m
全天を覆う雲 雲底高度 2130m
1日0時 YAKT ~ 1日12時 YAKT に一時的に
風向・風速不定 1m/s
視程300m
天気現象雪 霧
全天を覆う雲 鉛直視程 90m
TAF UEEE 301400Z 3015/0121 29003G08MPS 5000 -SN SCT020 OVC070
TEMPO 3015/0103 VRB01MPS 0300 SN FG VV003